sensor_id;sensor_type;location;lat;lon;timestamp;P1;durP1;ratioP1;P2;durP2;ratioP2
3627;SDS011;1830;49.000;12.074;2023-12-20T00:00:20;16.77;;;11.00;;
3627;SDS011;1830;49.000;12.074;2023-12-20T00:02:47;23.53;;;11.20;;
3627;SDS011;1830;49.000;12.074;2023-12-20T00:05:13;20.57;;;12.43;;
3627;SDS011;1830;49.000;12.074;2023-12-20T00:07:40;28.30;;;12.20;;
3627;SDS011;1830;49.000;12.074;2023-12-20T00:10:09;17.70;;;11.40;;
3627;SDS011;1830;49.000;12.074;2023-12-20T00:12:37;20.40;;;10.37;;
3627;SDS011;1830;49.000;12.074;2023-12-20T00:15:05;18.10;;;9.80;;
3627;SDS011;1830;49.000;12.074;2023-12-20T00:17:32;15.63;;;10.27;;
3627;SDS011;1830;49.000;12.074;2023-12-20T00:19:59;17.30;;;11.30;;
3627;SDS011;1830;49.000;12.074;2023-12-20T00:22:26;17.57;;;11.87;;
3627;SDS011;1830;49.000;12.074;2023-12-20T00:24:53;13.80;;;10.43;;
3627;SDS011;1830;49.000;12.074;2023-12-20T00:27:21;20.90;;;12.57;;
3627;SDS011;1830;49.000;12.074;2023-12-20T00:29:48;20.90;;;12.10;;
3627;SDS011;1830;49.000;12.074;2023-12-20T00:32:15;17.00;;;11.07;;
3627;SDS011;1830;49.000;12.074;2023-12-20T00:34:42;18.77;;;11.60;;
3627;SDS011;1830;49.000;12.074;2023-12-20T00:37:09;20.53;;;12.90;;
3627;SDS011;1830;49.000;12.074;2023-12-20T00:39:36;25.20;;;11.37;;
3627;SDS011;1830;49.000;12.074;2023-12-20T00:42:02;21.30;;;10.97;;
3627;SDS011;1830;49.000;12.074;2023-12-20T00:44:31;16.33;;;11.13;;
3627;SDS011;1830;49.000;12.074;2023-12-20T00:46:58;17.20;;;10.93;;
3627;SDS011;1830;49.000;12.074;2023-12-20T00:49:24;16.30;;;11.03;;
3627;SDS011;1830;49.000;12.074;2023-12-20T00:51:51;18.80;;;10.60;;
3627;SDS011;1830;49.000;12.074;2023-12-20T00:54:18;16.00;;;10.40;;
3627;SDS011;1830;49.000;12.074;2023-12-20T00:56:44;16.60;;;10.27;;
3627;SDS011;1830;49.000;12.074;2023-12-20T00:59:11;17.00;;;10.13;;
3627;SDS011;1830;49.000;12.074;2023-12-20T01:01:39;17.53;;;10.20;;
3627;SDS011;1830;49.000;12.074;2023-12-20T01:04:07;13.57;;;9.63;;
3627;SDS011;1830;49.000;12.074;2023-12-20T01:06:33;14.43;;;10.50;;
3627;SDS011;1830;49.000;12.074;2023-12-20T01:09:00;18.10;;;10.70;;
3627;SDS011;1830;49.000;12.074;2023-12-20T01:11:27;17.80;;;9.70;;
3627;SDS011;1830;49.000;12.074;2023-12-20T01:13:54;14.53;;;9.37;;
3627;SDS011;1830;49.000;12.074;2023-12-20T01:16:21;16.50;;;9.73;;
3627;SDS011;1830;49.000;12.074;2023-12-20T01:18:49;17.67;;;10.47;;
3627;SDS011;1830;49.000;12.074;2023-12-20T01:21:16;15.80;;;11.07;;
3627;SDS011;1830;49.000;12.074;2023-12-20T01:23:42;16.10;;;9.53;;
3627;SDS011;1830;49.000;12.074;2023-12-20T01:26:09;15.20;;;9.83;;
3627;SDS011;1830;49.000;12.074;2023-12-20T01:28:37;18.27;;;10.93;;
3627;SDS011;1830;49.000;12.074;2023-12-20T01:31:03;15.37;;;10.23;;
3627;SDS011;1830;49.000;12.074;2023-12-20T01:33:31;17.67;;;11.10;;
3627;SDS011;1830;49.000;12.074;2023-12-20T01:35:59;15.53;;;10.57;;
3627;SDS011;1830;49.000;12.074;2023-12-20T01:38:26;16.83;;;11.07;;
3627;SDS011;1830;49.000;12.074;2023-12-20T01:40:53;15.20;;;10.70;;
3627;SDS011;1830;49.000;12.074;2023-12-20T01:43:19;15.73;;;10.40;;
3627;SDS011;1830;49.000;12.074;2023-12-20T01:45:46;14.40;;;10.20;;
3627;SDS011;1830;49.000;12.074;2023-12-20T01:48:13;19.60;;;11.40;;
3627;SDS011;1830;49.000;12.074;2023-12-20T01:50:42;18.17;;;10.50;;
3627;SDS011;1830;49.000;12.074;2023-12-20T01:53:11;18.50;;;11.63;;
3627;SDS011;1830;49.000;12.074;2023-12-20T01:55:40;16.40;;;10.57;;
3627;SDS011;1830;49.000;12.074;2023-12-20T01:58:07;18.70;;;11.70;;
3627;SDS011;1830;49.000;12.074;2023-12-20T02:00:35;16.00;;;10.90;;
3627;SDS011;1830;49.000;12.074;2023-12-20T02:03:03;17.57;;;11.37;;
3627;SDS011;1830;49.000;12.074;2023-12-20T02:05:30;14.07;;;10.20;;
3627;SDS011;1830;49.000;12.074;2023-12-20T02:07:58;15.37;;;9.17;;
3627;SDS011;1830;49.000;12.074;2023-12-20T02:10:26;16.30;;;10.97;;
3627;SDS011;1830;49.000;12.074;2023-12-20T02:12:54;15.90;;;10.70;;
3627;SDS011;1830;49.000;12.074;2023-12-20T02:15:21;14.77;;;10.17;;
3627;SDS011;1830;49.000;12.074;2023-12-20T02:17:48;15.30;;;10.07;;
3627;SDS011;1830;49.000;12.074;2023-12-20T02:20:15;12.47;;;9.90;;
3627;SDS011;1830;49.000;12.074;2023-12-20T02:22:44;15.60;;;11.10;;
3627;SDS011;1830;49.000;12.074;2023-12-20T02:25:10;16.40;;;10.23;;
3627;SDS011;1830;49.000;12.074;2023-12-20T02:27:37;14.03;;;10.07;;
3627;SDS011;1830;49.000;12.074;2023-12-20T02:30:05;12.80;;;9.07;;
3627;SDS011;1830;49.000;12.074;2023-12-20T02:32:32;14.60;;;8.80;;
3627;SDS011;1830;49.000;12.074;2023-12-20T02:34:59;15.23;;;9.63;;
3627;SDS011;1830;49.000;12.074;2023-12-20T02:37:26;17.10;;;10.20;;
3627;SDS011;1830;49.000;12.074;2023-12-20T02:39:54;18.60;;;9.00;;
3627;SDS011;1830;49.000;12.074;2023-12-20T02:42:21;16.67;;;9.73;;
3627;SDS011;1830;49.000;12.074;2023-12-20T02:44:47;14.90;;;9.47;;
3627;SDS011;1830;49.000;12.074;2023-12-20T02:47:14;13.80;;;8.70;;
3627;SDS011;1830;49.000;12.074;2023-12-20T02:49:41;18.67;;;10.80;;
3627;SDS011;1830;49.000;12.074;2023-12-20T02:52:07;13.30;;;8.13;;
3627;SDS011;1830;49.000;12.074;2023-12-20T02:54:34;19.53;;;10.13;;
3627;SDS011;1830;49.000;12.074;2023-12-20T02:57:03;10.70;;;7.90;;
3627;SDS011;1830;49.000;12.074;2023-12-20T02:59:30;15.40;;;9.47;;
3627;SDS011;1830;49.000;12.074;2023-12-20T03:01:56;12.03;;;7.90;;
3627;SDS011;1830;49.000;12.074;2023-12-20T03:04:23;13.27;;;9.57;;
3627;SDS011;1830;49.000;12.074;2023-12-20T03:06:50;15.43;;;8.90;;
3627;SDS011;1830;49.000;12.074;2023-12-20T03:09:17;13.63;;;8.80;;
3627;SDS011;1830;49.000;12.074;2023-12-20T03:11:43;11.60;;;8.00;;
3627;SDS011;1830;49.000;12.074;2023-12-20T03:14:12;13.20;;;8.50;;
3627;SDS011;1830;49.000;12.074;2023-12-20T03:16:38;11.07;;;7.83;;
3627;SDS011;1830;49.000;12.074;2023-12-20T03:19:05;9.27;;;6.80;;
3627;SDS011;1830;49.000;12.074;2023-12-20T03:21:32;8.93;;;6.87;;
3627;SDS011;1830;49.000;12.074;2023-12-20T03:23:59;10.10;;;7.40;;
3627;SDS011;1830;49.000;12.074;2023-12-20T03:26:25;9.93;;;7.00;;
3627;SDS011;1830;49.000;12.074;2023-12-20T03:28:52;12.03;;;7.47;;
3627;SDS011;1830;49.000;12.074;2023-12-20T03:31:20;11.70;;;6.90;;
3627;SDS011;1830;49.000;12.074;2023-12-20T03:33:47;9.17;;;6.37;;
3627;SDS011;1830;49.000;12.074;2023-12-20T03:36:14;8.17;;;6.60;;
3627;SDS011;1830;49.000;12.074;2023-12-20T03:38:40;7.83;;;6.20;;
3627;SDS011;1830;49.000;12.074;2023-12-20T03:41:06;7.80;;;6.60;;
3627;SDS011;1830;49.000;12.074;2023-12-20T03:43:33;9.33;;;6.30;;
3627;SDS011;1830;49.000;12.074;2023-12-20T03:46:00;10.00;;;6.23;;
3627;SDS011;1830;49.000;12.074;2023-12-20T03:48:30;8.77;;;6.10;;
3627;SDS011;1830;49.000;12.074;2023-12-20T03:50:56;10.70;;;6.50;;
3627;SDS011;1830;49.000;12.074;2023-12-20T03:53:23;8.63;;;6.57;;
3627;SDS011;1830;49.000;12.074;2023-12-20T03:55:50;7.47;;;5.43;;
3627;SDS011;1830;49.000;12.074;2023-12-20T03:58:17;7.87;;;6.43;;
3627;SDS011;1830;49.000;12.074;2023-12-20T04:00:43;10.93;;;5.83;;
3627;SDS011;1830;49.000;12.074;2023-12-20T04:03:10;8.20;;;6.20;;
3627;SDS011;1830;49.000;12.074;2023-12-20T04:05:39;10.10;;;6.40;;
3627;SDS011;1830;49.000;12.074;2023-12-20T04:08:06;9.37;;;6.50;;
3627;SDS011;1830;49.000;12.074;2023-12-20T04:10:34;8.00;;;5.87;;
3627;SDS011;1830;49.000;12.074;2023-12-20T04:13:02;7.50;;;6.20;;
3627;SDS011;1830;49.000;12.074;2023-12-20T04:15:29;7.27;;;5.80;;
3627;SDS011;1830;49.000;12.074;2023-12-20T04:17:56;12.83;;;5.63;;
3627;SDS011;1830;49.000;12.074;2023-12-20T04:20:22;8.17;;;6.47;;
3627;SDS011;1830;49.000;12.074;2023-12-20T04:22:51;8.70;;;6.40;;
3627;SDS011;1830;49.000;12.074;2023-12-20T04:25:17;8.90;;;5.53;;
3627;SDS011;1830;49.000;12.074;2023-12-20T04:27:44;7.03;;;5.80;;
3627;SDS011;1830;49.000;12.074;2023-12-20T04:30:11;7.73;;;5.87;;
3627;SDS011;1830;49.000;12.074;2023-12-20T04:32:38;5.77;;;4.90;;
3627;SDS011;1830;49.000;12.074;2023-12-20T04:35:05;6.73;;;4.70;;
3627;SDS011;1830;49.000;12.074;2023-12-20T04:37:32;5.00;;;4.33;;
3627;SDS011;1830;49.000;12.074;2023-12-20T04:40:00;5.13;;;4.37;;
3627;SDS011;1830;49.000;12.074;2023-12-20T04:42:27;5.20;;;4.13;;
3627;SDS011;1830;49.000;12.074;2023-12-20T04:44:54;8.53;;;5.73;;
3627;SDS011;1830;49.000;12.074;2023-12-20T04:47:20;6.23;;;5.50;;
3627;SDS011;1830;49.000;12.074;2023-12-20T04:49:47;5.40;;;4.90;;
3627;SDS011;1830;49.000;12.074;2023-12-20T04:52:14;8.10;;;5.93;;
3627;SDS011;1830;49.000;12.074;2023-12-20T04:54:41;6.77;;;4.90;;
3627;SDS011;1830;49.000;12.074;2023-12-20T04:57:09;9.17;;;6.03;;
3627;SDS011;1830;49.000;12.074;2023-12-20T04:59:36;8.63;;;5.30;;
3627;SDS011;1830;49.000;12.074;2023-12-20T05:02:02;6.33;;;5.37;;
3627;SDS011;1830;49.000;12.074;2023-12-20T05:04:29;6.80;;;5.67;;
3627;SDS011;1830;49.000;12.074;2023-12-20T05:06:56;7.20;;;4.37;;
3627;SDS011;1830;49.000;12.074;2023-12-20T05:09:23;5.07;;;4.57;;
3627;SDS011;1830;49.000;12.074;2023-12-20T05:11:49;6.77;;;5.50;;
3627;SDS011;1830;49.000;12.074;2023-12-20T05:14:17;10.40;;;4.80;;
3627;SDS011;1830;49.000;12.074;2023-12-20T05:16:45;9.47;;;5.20;;
3627;SDS011;1830;49.000;12.074;2023-12-20T05:19:11;6.90;;;5.10;;
3627;SDS011;1830;49.000;12.074;2023-12-20T05:21:39;5.03;;;4.63;;
3627;SDS011;1830;49.000;12.074;2023-12-20T05:24:05;6.73;;;5.03;;
3627;SDS011;1830;49.000;12.074;2023-12-20T05:26:32;6.33;;;5.17;;
3627;SDS011;1830;49.000;12.074;2023-12-20T05:28:59;5.90;;;5.30;;
3627;SDS011;1830;49.000;12.074;2023-12-20T05:31:27;8.93;;;5.33;;
3627;SDS011;1830;49.000;12.074;2023-12-20T05:33:54;10.87;;;4.70;;
3627;SDS011;1830;49.000;12.074;2023-12-20T05:36:21;6.13;;;5.20;;
3627;SDS011;1830;49.000;12.074;2023-12-20T05:38:48;9.27;;;4.83;;
3627;SDS011;1830;49.000;12.074;2023-12-20T05:41:14;4.80;;;4.40;;
3627;SDS011;1830;49.000;12.074;2023-12-20T05:43:41;10.83;;;4.47;;
3627;SDS011;1830;49.000;12.074;2023-12-20T05:46:09;4.53;;;4.03;;
3627;SDS011;1830;49.000;12.074;2023-12-20T05:48:38;8.90;;;4.30;;
3627;SDS011;1830;49.000;12.074;2023-12-20T05:51:05;7.47;;;4.70;;
3627;SDS011;1830;49.000;12.074;2023-12-20T05:53:33;4.83;;;4.03;;
3627;SDS011;1830;49.000;12.074;2023-12-20T05:55:59;7.13;;;4.70;;
3627;SDS011;1830;49.000;12.074;2023-12-20T05:58:26;5.07;;;4.40;;
3627;SDS011;1830;49.000;12.074;2023-12-20T06:00:54;5.80;;;4.40;;
3627;SDS011;1830;49.000;12.074;2023-12-20T06:03:21;8.87;;;5.47;;
3627;SDS011;1830;49.000;12.074;2023-12-20T06:05:49;8.60;;;5.13;;
3627;SDS011;1830;49.000;12.074;2023-12-20T06:08:17;6.37;;;4.40;;
3627;SDS011;1830;49.000;12.074;2023-12-20T06:10:44;5.57;;;4.60;;
3627;SDS011;1830;49.000;12.074;2023-12-20T06:13:10;8.13;;;4.30;;
3627;SDS011;1830;49.000;12.074;2023-12-20T06:15:38;5.83;;;5.00;;
3627;SDS011;1830;49.000;12.074;2023-12-20T06:18:05;4.83;;;4.33;;
3627;SDS011;1830;49.000;12.074;2023-12-20T06:20:31;6.67;;;4.30;;
3627;SDS011;1830;49.000;12.074;2023-12-20T06:23:00;4.20;;;3.77;;
3627;SDS011;1830;49.000;12.074;2023-12-20T06:25:26;3.30;;;3.00;;
3627;SDS011;1830;49.000;12.074;2023-12-20T06:27:53;3.37;;;2.90;;
3627;SDS011;1830;49.000;12.074;2023-12-20T06:30:20;3.73;;;3.43;;
3627;SDS011;1830;49.000;12.074;2023-12-20T06:32:47;2.83;;;2.60;;
3627;SDS011;1830;49.000;12.074;2023-12-20T06:35:14;2.50;;;2.30;;
3627;SDS011;1830;49.000;12.074;2023-12-20T06:37:41;2.13;;;2.03;;
3627;SDS011;1830;49.000;12.074;2023-12-20T06:40:10;1.70;;;1.70;;
3627;SDS011;1830;49.000;12.074;2023-12-20T06:42:37;2.57;;;2.37;;
3627;SDS011;1830;49.000;12.074;2023-12-20T06:45:04;1.40;;;1.23;;
3627;SDS011;1830;49.000;12.074;2023-12-20T06:47:31;1.77;;;1.70;;
3627;SDS011;1830;49.000;12.074;2023-12-20T06:49:58;1.60;;;1.50;;
3627;SDS011;1830;49.000;12.074;2023-12-20T06:52:25;2.10;;;1.60;;
3627;SDS011;1830;49.000;12.074;2023-12-20T06:54:52;4.67;;;2.50;;
3627;SDS011;1830;49.000;12.074;2023-12-20T06:57:20;1.53;;;1.53;;
3627;SDS011;1830;49.000;12.074;2023-12-20T06:59:48;3.10;;;1.40;;
3627;SDS011;1830;49.000;12.074;2023-12-20T07:02:15;1.33;;;1.33;;
3627;SDS011;1830;49.000;12.074;2023-12-20T07:04:42;2.87;;;1.90;;
3627;SDS011;1830;49.000;12.074;2023-12-20T07:07:09;1.50;;;1.50;;
3627;SDS011;1830;49.000;12.074;2023-12-20T07:09:36;1.67;;;1.57;;
3627;SDS011;1830;49.000;12.074;2023-12-20T07:12:03;1.83;;;1.73;;
3627;SDS011;1830;49.000;12.074;2023-12-20T07:14:32;1.73;;;1.63;;
3627;SDS011;1830;49.000;12.074;2023-12-20T07:16:59;1.63;;;1.50;;
3627;SDS011;1830;49.000;12.074;2023-12-20T07:19:25;1.90;;;1.80;;
3627;SDS011;1830;49.000;12.074;2023-12-20T07:21:52;4.73;;;1.70;;
3627;SDS011;1830;49.000;12.074;2023-12-20T07:24:19;1.30;;;1.20;;
3627;SDS011;1830;49.000;12.074;2023-12-20T07:26:46;6.63;;;1.50;;
3627;SDS011;1830;49.000;12.074;2023-12-20T07:29:12;2.70;;;2.50;;
3627;SDS011;1830;49.000;12.074;2023-12-20T07:31:40;2.00;;;1.00;;
3627;SDS011;1830;49.000;12.074;2023-12-20T07:34:07;2.30;;;2.10;;
3627;SDS011;1830;49.000;12.074;2023-12-20T07:36:34;2.03;;;1.93;;
3627;SDS011;1830;49.000;12.074;2023-12-20T07:39:01;2.80;;;2.50;;
3627;SDS011;1830;49.000;12.074;2023-12-20T07:41:28;2.50;;;2.30;;
3627;SDS011;1830;49.000;12.074;2023-12-20T07:43:54;3.30;;;3.03;;
3627;SDS011;1830;49.000;12.074;2023-12-20T07:46:21;1.20;;;1.20;;
3627;SDS011;1830;49.000;12.074;2023-12-20T07:48:50;1.40;;;1.40;;
3627;SDS011;1830;49.000;12.074;2023-12-20T07:51:16;1.90;;;1.90;;
3627;SDS011;1830;49.000;12.074;2023-12-20T07:53:44;1.70;;;1.60;;
3627;SDS011;1830;49.000;12.074;2023-12-20T07:56:14;3.80;;;1.93;;
3627;SDS011;1830;49.000;12.074;2023-12-20T07:58:41;3.47;;;1.50;;
3627;SDS011;1830;49.000;12.074;2023-12-20T08:01:08;7.43;;;2.17;;
3627;SDS011;1830;49.000;12.074;2023-12-20T08:03:35;1.40;;;1.40;;
3627;SDS011;1830;49.000;12.074;2023-12-20T08:06:03;1.60;;;1.60;;
3627;SDS011;1830;49.000;12.074;2023-12-20T08:08:30;1.77;;;1.40;;
3627;SDS011;1830;49.000;12.074;2023-12-20T08:10:57;2.23;;;2.13;;
3627;SDS011;1830;49.000;12.074;2023-12-20T08:13:25;1.70;;;1.60;;
3627;SDS011;1830;49.000;12.074;2023-12-20T08:15:52;4.73;;;2.20;;
3627;SDS011;1830;49.000;12.074;2023-12-20T08:18:19;2.00;;;1.90;;
3627;SDS011;1830;49.000;12.074;2023-12-20T08:20:46;1.80;;;1.70;;
3627;SDS011;1830;49.000;12.074;2023-12-20T08:23:14;1.60;;;1.60;;
3627;SDS011;1830;49.000;12.074;2023-12-20T08:25:41;1.40;;;1.40;;
3627;SDS011;1830;49.000;12.074;2023-12-20T08:28:08;2.07;;;1.97;;
3627;SDS011;1830;49.000;12.074;2023-12-20T08:30:35;2.87;;;1.70;;
3627;SDS011;1830;49.000;12.074;2023-12-20T08:33:02;1.50;;;1.50;;
3627;SDS011;1830;49.000;12.074;2023-12-20T08:35:29;1.80;;;1.70;;
3627;SDS011;1830;49.000;12.074;2023-12-20T08:37:56;1.50;;;1.50;;
3627;SDS011;1830;49.000;12.074;2023-12-20T08:40:24;1.70;;;1.60;;
3627;SDS011;1830;49.000;12.074;2023-12-20T08:42:51;2.00;;;1.90;;
3627;SDS011;1830;49.000;12.074;2023-12-20T08:45:18;4.77;;;4.37;;
3627;SDS011;1830;49.000;12.074;2023-12-20T08:47:44;2.77;;;2.40;;
3627;SDS011;1830;49.000;12.074;2023-12-20T08:50:11;2.23;;;2.00;;
3627;SDS011;1830;49.000;12.074;2023-12-20T08:52:38;2.50;;;2.27;;
3627;SDS011;1830;49.000;12.074;2023-12-20T08:55:05;2.43;;;2.33;;
3627;SDS011;1830;49.000;12.074;2023-12-20T08:57:34;1.47;;;1.47;;
3627;SDS011;1830;49.000;12.074;2023-12-20T09:00:01;3.10;;;1.80;;
3627;SDS011;1830;49.000;12.074;2023-12-20T09:02:28;2.93;;;2.30;;
3627;SDS011;1830;49.000;12.074;2023-12-20T09:04:55;4.47;;;4.17;;
3627;SDS011;1830;49.000;12.074;2023-12-20T09:07:22;4.90;;;4.40;;
3627;SDS011;1830;49.000;12.074;2023-12-20T09:09:49;4.60;;;1.80;;
3627;SDS011;1830;49.000;12.074;2023-12-20T09:12:17;2.20;;;2.10;;
3627;SDS011;1830;49.000;12.074;2023-12-20T09:14:45;2.13;;;2.03;;
3627;SDS011;1830;49.000;12.074;2023-12-20T09:17:12;2.00;;;1.60;;
3627;SDS011;1830;49.000;12.074;2023-12-20T09:19:39;2.13;;;1.83;;
3627;SDS011;1830;49.000;12.074;2023-12-20T09:22:06;1.60;;;1.50;;
3627;SDS011;1830;49.000;12.074;2023-12-20T09:24:33;2.37;;;2.17;;
3627;SDS011;1830;49.000;12.074;2023-12-20T09:27:00;2.30;;;2.20;;
3627;SDS011;1830;49.000;12.074;2023-12-20T09:29:27;3.50;;;1.87;;
3627;SDS011;1830;49.000;12.074;2023-12-20T09:31:56;2.20;;;2.10;;
3627;SDS011;1830;49.000;12.074;2023-12-20T09:34:23;3.50;;;2.57;;
3627;SDS011;1830;49.000;12.074;2023-12-20T09:36:50;2.67;;;2.47;;
3627;SDS011;1830;49.000;12.074;2023-12-20T09:39:17;9.83;;;2.97;;
3627;SDS011;1830;49.000;12.074;2023-12-20T09:41:45;5.67;;;3.00;;
3627;SDS011;1830;49.000;12.074;2023-12-20T09:44:18;2.50;;;2.30;;
3627;SDS011;1830;49.000;12.074;2023-12-20T09:46:45;6.33;;;3.90;;
3627;SDS011;1830;49.000;12.074;2023-12-20T09:49:16;3.07;;;2.87;;
3627;SDS011;1830;49.000;12.074;2023-12-20T09:51:44;4.23;;;3.10;;
3627;SDS011;1830;49.000;12.074;2023-12-20T09:54:12;2.70;;;2.60;;
3627;SDS011;1830;49.000;12.074;2023-12-20T09:56:41;2.43;;;2.23;;
3627;SDS011;1830;49.000;12.074;2023-12-20T09:59:08;3.27;;;3.07;;
3627;SDS011;1830;49.000;12.074;2023-12-20T10:01:35;5.23;;;3.80;;
3627;SDS011;1830;49.000;12.074;2023-12-20T10:04:02;2.43;;;2.33;;
3627;SDS011;1830;49.000;12.074;2023-12-20T10:06:35;3.30;;;2.80;;
3627;SDS011;1830;49.000;12.074;2023-12-20T10:09:02;5.30;;;2.83;;
3627;SDS011;1830;49.000;12.074;2023-12-20T10:11:30;2.80;;;2.60;;
3627;SDS011;1830;49.000;12.074;2023-12-20T10:13:58;2.60;;;2.40;;
3627;SDS011;1830;49.000;12.074;2023-12-20T10:16:26;10.20;;;4.50;;
3627;SDS011;1830;49.000;12.074;2023-12-20T10:18:53;8.07;;;5.40;;
3627;SDS011;1830;49.000;12.074;2023-12-20T10:21:20;2.70;;;2.40;;
3627;SDS011;1830;49.000;12.074;2023-12-20T10:23:49;4.00;;;2.50;;
3627;SDS011;1830;49.000;12.074;2023-12-20T10:26:19;3.60;;;2.30;;
3627;SDS011;1830;49.000;12.074;2023-12-20T10:28:46;2.50;;;2.40;;
3627;SDS011;1830;49.000;12.074;2023-12-20T10:31:25;2.40;;;2.30;;
3627;SDS011;1830;49.000;12.074;2023-12-20T10:33:53;2.10;;;2.00;;
3627;SDS011;1830;49.000;12.074;2023-12-20T10:36:22;2.00;;;1.90;;
3627;SDS011;1830;49.000;12.074;2023-12-20T10:38:53;2.50;;;2.40;;
3627;SDS011;1830;49.000;12.074;2023-12-20T10:41:23;1.97;;;1.90;;
3627;SDS011;1830;49.000;12.074;2023-12-20T10:43:52;2.60;;;2.50;;
3627;SDS011;1830;49.000;12.074;2023-12-20T10:46:21;3.50;;;3.23;;
3627;SDS011;1830;49.000;12.074;2023-12-20T10:48:48;2.40;;;2.30;;
3627;SDS011;1830;49.000;12.074;2023-12-20T10:51:18;2.70;;;2.50;;
3627;SDS011;1830;49.000;12.074;2023-12-20T10:53:45;2.70;;;2.50;;
3627;SDS011;1830;49.000;12.074;2023-12-20T10:56:15;2.20;;;2.10;;
3627;SDS011;1830;49.000;12.074;2023-12-20T10:58:43;2.90;;;2.70;;
3627;SDS011;1830;49.000;12.074;2023-12-20T11:01:12;2.60;;;2.40;;
3627;SDS011;1830;49.000;12.074;2023-12-20T11:03:41;2.53;;;2.43;;
3627;SDS011;1830;49.000;12.074;2023-12-20T11:06:14;2.90;;;2.73;;
3627;SDS011;1830;49.000;12.074;2023-12-20T11:08:51;3.17;;;2.80;;
3627;SDS011;1830;49.000;12.074;2023-12-20T11:11:23;3.00;;;2.80;;
3627;SDS011;1830;49.000;12.074;2023-12-20T11:13:58;2.80;;;2.60;;
3627;SDS011;1830;49.000;12.074;2023-12-20T11:16:31;3.10;;;2.90;;
3627;SDS011;1830;49.000;12.074;2023-12-20T11:18:57;5.40;;;3.23;;
3627;SDS011;1830;49.000;12.074;2023-12-20T11:21:30;8.00;;;3.43;;
3627;SDS011;1830;49.000;12.074;2023-12-20T11:23:57;3.13;;;2.83;;
3627;SDS011;1830;49.000;12.074;2023-12-20T11:26:28;3.67;;;2.90;;
3627;SDS011;1830;49.000;12.074;2023-12-20T11:29:00;7.00;;;3.00;;
3627;SDS011;1830;49.000;12.074;2023-12-20T11:31:59;3.03;;;2.83;;
3627;SDS011;1830;49.000;12.074;2023-12-20T11:34:26;6.83;;;2.83;;
3627;SDS011;1830;49.000;12.074;2023-12-20T11:36:57;5.53;;;2.70;;
3627;SDS011;1830;49.000;12.074;2023-12-20T11:39:25;4.87;;;3.10;;
3627;SDS011;1830;49.000;12.074;2023-12-20T11:41:55;4.33;;;3.10;;
3627;SDS011;1830;49.000;12.074;2023-12-20T11:44:24;5.40;;;3.70;;
3627;SDS011;1830;49.000;12.074;2023-12-20T11:46:52;8.33;;;2.80;;
3627;SDS011;1830;49.000;12.074;2023-12-20T11:49:22;4.53;;;2.90;;
3627;SDS011;1830;49.000;12.074;2023-12-20T11:51:50;5.70;;;2.60;;
3627;SDS011;1830;49.000;12.074;2023-12-20T11:54:16;4.10;;;2.20;;
3627;SDS011;1830;49.000;12.074;2023-12-20T11:56:43;8.87;;;2.43;;
3627;SDS011;1830;49.000;12.074;2023-12-20T11:59:11;3.77;;;2.43;;
3627;SDS011;1830;49.000;12.074;2023-12-20T12:01:38;3.53;;;2.40;;
3627;SDS011;1830;49.000;12.074;2023-12-20T12:04:05;5.70;;;2.03;;
3627;SDS011;1830;49.000;12.074;2023-12-20T12:06:33;3.40;;;3.10;;
3627;SDS011;1830;49.000;12.074;2023-12-20T12:09:00;11.70;;;2.63;;
3627;SDS011;1830;49.000;12.074;2023-12-20T12:11:29;3.10;;;2.10;;
3627;SDS011;1830;49.000;12.074;2023-12-20T12:13:55;3.17;;;2.40;;
3627;SDS011;1830;49.000;12.074;2023-12-20T12:16:24;2.80;;;1.83;;
3627;SDS011;1830;49.000;12.074;2023-12-20T12:18:55;5.40;;;3.40;;
3627;SDS011;1830;49.000;12.074;2023-12-20T12:21:22;6.70;;;2.47;;
3627;SDS011;1830;49.000;12.074;2023-12-20T12:23:49;2.23;;;1.70;;
3627;SDS011;1830;49.000;12.074;2023-12-20T12:26:16;5.90;;;1.93;;
3627;SDS011;1830;49.000;12.074;2023-12-20T12:28:43;2.40;;;2.07;;
3627;SDS011;1830;49.000;12.074;2023-12-20T12:31:13;2.00;;;1.40;;
3627;SDS011;1830;49.000;12.074;2023-12-20T12:33:42;8.10;;;2.97;;
3627;SDS011;1830;49.000;12.074;2023-12-20T12:36:09;2.27;;;2.07;;
3627;SDS011;1830;49.000;12.074;2023-12-20T12:38:36;3.90;;;2.53;;
3627;SDS011;1830;49.000;12.074;2023-12-20T12:41:03;1.80;;;1.70;;
3627;SDS011;1830;49.000;12.074;2023-12-20T12:43:32;2.73;;;1.80;;
3627;SDS011;1830;49.000;12.074;2023-12-20T12:45:59;4.30;;;1.70;;
3627;SDS011;1830;49.000;12.074;2023-12-20T12:48:25;3.57;;;1.67;;
3627;SDS011;1830;49.000;12.074;2023-12-20T12:50:54;8.73;;;2.67;;
3627;SDS011;1830;49.000;12.074;2023-12-20T12:53:24;2.40;;;2.20;;
3627;SDS011;1830;49.000;12.074;2023-12-20T12:55:52;9.80;;;3.27;;
3627;SDS011;1830;49.000;12.074;2023-12-20T12:58:19;3.60;;;2.33;;
3627;SDS011;1830;49.000;12.074;2023-12-20T13:00:47;9.40;;;2.17;;
3627;SDS011;1830;49.000;12.074;2023-12-20T13:03:14;4.90;;;2.17;;
3627;SDS011;1830;49.000;12.074;2023-12-20T13:05:40;7.87;;;3.50;;
3627;SDS011;1830;49.000;12.074;2023-12-20T13:08:09;3.73;;;2.07;;
3627;SDS011;1830;49.000;12.074;2023-12-20T13:10:37;8.00;;;3.43;;
3627;SDS011;1830;49.000;12.074;2023-12-20T13:13:04;4.37;;;2.50;;
3627;SDS011;1830;49.000;12.074;2023-12-20T13:15:31;8.03;;;2.43;;
3627;SDS011;1830;49.000;12.074;2023-12-20T13:17:57;6.63;;;2.07;;
3627;SDS011;1830;49.000;12.074;2023-12-20T13:20:25;9.47;;;5.27;;
3627;SDS011;1830;49.000;12.074;2023-12-20T13:22:51;12.23;;;3.77;;
3627;SDS011;1830;49.000;12.074;2023-12-20T13:25:20;2.77;;;2.50;;
3627;SDS011;1830;49.000;12.074;2023-12-20T13:27:46;9.80;;;2.87;;
3627;SDS011;1830;49.000;12.074;2023-12-20T13:30:13;7.10;;;4.90;;
3627;SDS011;1830;49.000;12.074;2023-12-20T13:32:41;6.90;;;4.93;;
3627;SDS011;1830;49.000;12.074;2023-12-20T13:35:07;6.43;;;3.67;;
3627;SDS011;1830;49.000;12.074;2023-12-20T13:37:35;5.23;;;2.87;;
3627;SDS011;1830;49.000;12.074;2023-12-20T13:40:02;8.10;;;4.13;;
3627;SDS011;1830;49.000;12.074;2023-12-20T13:42:31;7.73;;;2.70;;
3627;SDS011;1830;49.000;12.074;2023-12-20T13:44:57;3.53;;;2.57;;
3627;SDS011;1830;49.000;12.074;2023-12-20T13:47:24;5.80;;;3.83;;
3627;SDS011;1830;49.000;12.074;2023-12-20T13:49:51;2.70;;;2.50;;
3627;SDS011;1830;49.000;12.074;2023-12-20T13:52:18;2.90;;;2.50;;
3627;SDS011;1830;49.000;12.074;2023-12-20T13:54:45;18.13;;;3.90;;
3627;SDS011;1830;49.000;12.074;2023-12-20T13:57:12;2.60;;;2.17;;
3627;SDS011;1830;49.000;12.074;2023-12-20T13:59:40;4.93;;;2.30;;
3627;SDS011;1830;49.000;12.074;2023-12-20T14:02:07;2.40;;;2.20;;
3627;SDS011;1830;49.000;12.074;2023-12-20T14:04:33;8.57;;;2.73;;
3627;SDS011;1830;49.000;12.074;2023-12-20T14:07:00;4.20;;;2.23;;
3627;SDS011;1830;49.000;12.074;2023-12-20T14:09:27;7.80;;;3.17;;
3627;SDS011;1830;49.000;12.074;2023-12-20T14:11:54;7.33;;;3.47;;
3627;SDS011;1830;49.000;12.074;2023-12-20T14:14:21;7.30;;;3.43;;
3627;SDS011;1830;49.000;12.074;2023-12-20T14:16:49;6.20;;;2.63;;
3627;SDS011;1830;49.000;12.074;2023-12-20T14:19:16;5.50;;;3.27;;
3627;SDS011;1830;49.000;12.074;2023-12-20T14:21:43;8.43;;;3.73;;
3627;SDS011;1830;49.000;12.074;2023-12-20T14:24:10;8.90;;;4.80;;
3627;SDS011;1830;49.000;12.074;2023-12-20T14:26:39;15.90;;;6.33;;
3627;SDS011;1830;49.000;12.074;2023-12-20T14:29:06;8.73;;;2.60;;
3627;SDS011;1830;49.000;12.074;2023-12-20T14:31:34;5.00;;;2.30;;
3627;SDS011;1830;49.000;12.074;2023-12-20T14:34:03;8.43;;;4.73;;
3627;SDS011;1830;49.000;12.074;2023-12-20T14:36:30;13.00;;;4.90;;
3627;SDS011;1830;49.000;12.074;2023-12-20T14:38:57;8.07;;;3.50;;
3627;SDS011;1830;49.000;12.074;2023-12-20T14:41:24;10.13;;;4.60;;
3627;SDS011;1830;49.000;12.074;2023-12-20T14:43:51;1.90;;;1.63;;
3627;SDS011;1830;49.000;12.074;2023-12-20T14:46:19;6.47;;;2.97;;
3627;SDS011;1830;49.000;12.074;2023-12-20T14:48:46;5.30;;;3.20;;
3627;SDS011;1830;49.000;12.074;2023-12-20T14:51:15;13.47;;;4.73;;
3627;SDS011;1830;49.000;12.074;2023-12-20T14:53:42;7.17;;;3.27;;
3627;SDS011;1830;49.000;12.074;2023-12-20T14:56:09;4.67;;;2.47;;